createdAt,value
2016-04-29T00:00:59.005Z,66.7
2016-04-29T00:01:59.008Z,66.8
2016-04-29T00:02:59.197Z,66.51
2016-04-29T00:03:58.997Z,67.46
2016-04-29T00:04:58.984Z,67.36
2016-04-29T00:05:59.002Z,67.08
2016-04-29T00:06:59.177Z,67.18
2016-04-29T00:07:58.991Z,66.89
2016-04-29T00:08:59.401Z,67.18
2016-04-29T00:11:13.063Z,68.31
2016-04-29T00:11:58.957Z,67.93
2016-04-29T00:12:58.958Z,67.65
2016-04-29T00:13:59.366Z,68.02
2016-04-29T00:14:59.019Z,67.74
2016-04-29T00:15:59.061Z,67.46
2016-04-29T00:16:59.072Z,67.36
2016-04-29T00:17:59.130Z,67.27
2016-04-29T00:18:59.148Z,67.55
2016-04-29T00:20:08.181Z,67.55
2016-04-29T00:20:59.838Z,67.65
2016-04-29T00:21:59.184Z,67.74
2016-04-29T00:22:59.200Z,68.12
2016-04-29T00:23:59.229Z,67.46
2016-04-29T00:24:59.206Z,67.43
2016-04-29T00:25:59.197Z,67.55
2016-04-29T00:26:59.205Z,67.43
2016-04-29T00:27:59.212Z,67.9
2016-04-29T00:28:59.204Z,67.99
2016-04-29T00:30:00.412Z,67.8
2016-04-29T00:30:59.197Z,67.8
2016-04-29T00:31:59.202Z,67.71
2016-04-29T00:32:59.394Z,67.43
2016-04-29T00:33:59.399Z,68.18
2016-04-29T00:34:59.386Z,67.9
2016-04-29T00:35:59.781Z,67.61
2016-04-29T00:36:59.190Z,67.71
2016-04-29T00:37:59.396Z,68.37
2016-04-29T00:38:59.416Z,68.18
2016-04-29T00:39:59.185Z,67.99
2016-04-29T00:40:59.187Z,68.65
2016-04-29T00:41:59.393Z,68.75
2016-04-29T00:42:59.162Z,68.84
2016-04-29T00:43:59.165Z,68.65
2016-04-29T18:19:12.515Z,37.49
2016-04-29T18:20:12.675Z,37.86
2016-04-29T18:21:12.694Z,37.86
2016-04-29T18:22:12.682Z,37.66
2016-04-29T18:23:12.700Z,37.66
2016-04-29T18:24:12.702Z,37.76
2016-04-29T18:25:12.705Z,37.76
2016-04-29T22:35:29.871Z,52.72
2016-04-29T22:36:29.905Z,52.72
2016-04-29T22:37:29.876Z,52.59
2016-04-29T22:38:29.895Z,52.78
2016-04-29T22:40:29.713Z,52.97
2016-04-29T22:41:29.857Z,53.16
2016-04-29T22:42:29.875Z,53.26
2016-04-29T22:43:29.877Z,53.26
2016-04-29T22:44:29.895Z,53.45
2016-04-29T22:45:30.085Z,53.26
2016-04-29T22:46:29.885Z,53.83
2016-04-29T22:47:30.107Z,53.54
2016-04-29T22:48:29.859Z,53.83
2016-04-29T22:49:29.861Z,53.73
2016-04-29T22:50:29.880Z,53.83
2016-04-29T22:51:29.867Z,53.35
2016-04-29T22:52:44.135Z,53.73
2016-04-29T22:53:30.060Z,53.83
2016-04-29T22:54:29.876Z,53.83
2016-04-29T22:55:29.707Z,53.26
2016-04-29T22:56:29.865Z,53.83
2016-04-29T22:57:29.869Z,54.02
2016-04-29T22:58:29.871Z,53.83
2016-04-29T22:59:29.905Z,53.64
2016-04-29T23:01:30.098Z,53.64
2016-04-29T23:02:29.725Z,53.83
2016-04-29T23:03:29.868Z,54.39
2016-04-29T23:04:29.871Z,53.83
2016-04-29T23:05:29.734Z,54.68
2016-04-29T23:06:29.877Z,54.97
2016-04-29T23:07:29.848Z,54.68
2016-04-29T23:08:29.881Z,54.68
2016-04-29T23:09:29.870Z,54.49
2016-04-29T23:10:29.857Z,54.87
2016-04-29T23:11:29.859Z,54.68
2016-04-29T23:12:29.862Z,55.06
2016-04-29T23:13:29.881Z,55.35
2016-04-29T23:14:29.742Z,56.1
2016-04-29T23:15:29.854Z,56.1
2016-04-29T23:16:30.076Z,56.87
2016-04-29T23:17:29.859Z,56.01
2016-04-29T23:18:30.378Z,56.39
2016-04-29T23:19:29.849Z,56.39
2016-04-29T23:20:29.867Z,55.82
2016-04-29T23:21:29.855Z,56.17
2016-04-29T23:22:29.888Z,55.91
2016-04-29T23:23:29.923Z,55.91
2016-04-29T23:24:29.847Z,55.6
2016-04-29T23:25:29.865Z,55.79
2016-04-29T23:26:30.071Z,55.91
2016-04-29T23:27:29.839Z,55.25
2016-04-29T23:28:29.842Z,55.04
2016-04-29T23:29:29.861Z,55.41
2016-04-29T23:30:30.066Z,55.13
2016-04-29T23:31:29.866Z,55.98
2016-04-29T23:32:29.838Z,55.89
2016-04-29T23:33:30.027Z,55.22
2016-04-29T23:34:29.858Z,55.32
2016-04-29T23:35:43.924Z,56.08
2016-04-29T23:36:29.848Z,55.89
2016-04-29T23:37:29.851Z,55.7
2016-04-29T23:38:29.837Z,55.13
2016-04-29T23:39:29.840Z,55.6
2016-04-29T23:40:29.859Z,55.79
2016-04-29T23:41:29.861Z,55.22
2016-04-29T23:42:29.879Z,55.6
2016-04-29T23:43:29.820Z,55.79
2016-04-29T23:44:29.854Z,55.13
2016-04-29T23:45:29.841Z,55.89
2016-04-29T23:46:29.828Z,55.7
2016-04-29T23:47:29.831Z,55.6
2016-04-29T23:48:31.178Z,55.6
2016-04-29T23:49:29.696Z,55.79
2016-04-29T23:50:29.823Z,55.79
2016-04-29T23:51:29.826Z,55.79
2016-04-29T23:52:29.828Z,56.08
2016-04-29T23:53:29.831Z,55.89
2016-04-29T23:54:30.053Z,56.55
2016-04-29T23:55:29.821Z,56.08
2016-04-29T23:56:29.824Z,55.7
2016-04-29T23:58:29.844Z,56.27
2016-04-29T23:59:29.847Z,56.36
